THY729 LTFM-EHAM
Flight info
| Callsign | THY729 |
|---|---|
| Flight time | N/A |
| Altitude | 40000 |
| Route | TUDBU1E/36 TUDBU Q26 ETUBA DCT AMTOV DCT MOPUG DCT VAJDI DCT GYR DCT DITIS DCT RAPET DCT MASEK L604 MAPOX DCT NORKU |
| Aircraft | A333/H-SDE3GHIJ2J3J5M1RVWXY/LB2D1 |
Departure
| Time | 2026-05-07 13:41 |
|---|---|
| Airport | İstanbul Airport (LTFM) |
Arrival
| Time | N/A |
|---|---|
| Airport | Amsterdam Airport Schiphol (EHAM) |
| Time | Latitude | Longitude | Altitude | Speed | Heading |
|---|---|---|---|---|---|
| 2026-05-07 13:02 | 41.26591 | 28.75005 | 338 ft | 0 kts | 286° |
| 2026-05-07 13:30 | 41.26588 | 28.75021 | 338 ft | 2 kts | 286° |
| 2026-05-07 13:31 | 41.26584 | 28.75040 | 338 ft | 2 kts | 286° |
| 2026-05-07 13:31 | 41.26580 | 28.75059 | 338 ft | 2 kts | 286° |
| 2026-05-07 13:31 | 41.26575 | 28.75078 | 338 ft | 2 kts | 286° |
| 2026-05-07 13:31 | 41.26571 | 28.75097 | 338 ft | 2 kts | 286° |
| 2026-05-07 13:32 | 41.26567 | 28.75116 | 338 ft | 1 kts | 286° |
| 2026-05-07 13:32 | 41.26564 | 28.75128 | 338 ft | 1 kts | 266° |
| 2026-05-07 13:32 | 41.26570 | 28.75145 | 338 ft | 2 kts | 210° |
| 2026-05-07 13:32 | 41.26577 | 28.75149 | 338 ft | 1 kts | 195° |
| 2026-05-07 13:33 | 41.26579 | 28.75150 | 338 ft | 0 kts | 196° |
| 2026-05-07 13:36 | 41.26579 | 28.75149 | 338 ft | 0 kts | 196° |
| 2026-05-07 13:36 | 41.26552 | 28.75140 | 338 ft | 7 kts | 196° |
| 2026-05-07 13:36 | 41.26495 | 28.75118 | 338 ft | 9 kts | 197° |
| 2026-05-07 13:36 | 41.26427 | 28.75090 | 338 ft | 12 kts | 197° |
| 2026-05-07 13:37 | 41.26343 | 28.75054 | 338 ft | 12 kts | 198° |
| 2026-05-07 13:37 | 41.26261 | 28.75051 | 338 ft | 11 kts | 138° |
| 2026-05-07 13:37 | 41.26237 | 28.75145 | 338 ft | 10 kts | 96° |
| 2026-05-07 13:37 | 41.26236 | 28.75237 | 338 ft | 9 kts | 91° |
| 2026-05-07 13:38 | 41.26235 | 28.75327 | 338 ft | 9 kts | 89° |
| 2026-05-07 13:38 | 41.26237 | 28.75414 | 338 ft | 9 kts | 88° |
| 2026-05-07 13:38 | 41.26239 | 28.75497 | 338 ft | 8 kts | 88° |
| 2026-05-07 13:38 | 41.26241 | 28.75576 | 338 ft | 8 kts | 89° |
| 2026-05-07 13:39 | 41.26249 | 28.75642 | 338 ft | 5 kts | 52° |
| 2026-05-07 13:39 | 41.26282 | 28.75661 | 338 ft | 5 kts | 12° |
| 2026-05-07 13:39 | 41.26317 | 28.75666 | 338 ft | 4 kts | 4° |
| 2026-05-07 13:39 | 41.26335 | 28.75666 | 338 ft | 0 kts | 0° |
| 2026-05-07 13:40 | 41.26407 | 28.75666 | 338 ft | 25 kts | 0° |
| 2026-05-07 13:40 | 41.26854 | 28.75657 | 338 ft | 101 kts | 359° |
| 2026-05-07 13:40 | 41.27785 | 28.75633 | 340 ft | 163 kts | 1° |
| 2026-05-07 13:41 | 41.29028 | 28.75618 | 640 ft | 189 kts | 2° |
| 2026-05-07 13:41 | 41.30245 | 28.75993 | 1529 ft | 183 kts | 34° |
| 2026-05-07 13:41 | 41.31137 | 28.77203 | 2248 ft | 190 kts | 34° |
| 2026-05-07 13:41 | 41.32319 | 28.78056 | 2641 ft | 202 kts | 26° |
| 2026-05-07 13:42 | 41.33572 | 28.79037 | 2990 ft | 218 kts | 29° |
| 2026-05-07 13:42 | 41.34993 | 28.80023 | 3295 ft | 239 kts | 24° |
| 2026-05-07 13:42 | 41.36474 | 28.81144 | 3721 ft | 255 kts | 27° |
| 2026-05-07 13:42 | 41.38120 | 28.82222 | 4163 ft | 268 kts | 13° |
| 2026-05-07 13:43 | 41.39949 | 28.82338 | 5020 ft | 268 kts | 352° |
| 2026-05-07 13:43 | 41.41783 | 28.82116 | 6083 ft | 266 kts | 353° |
| 2026-05-07 13:43 | 41.43622 | 28.81894 | 7005 ft | 270 kts | 353° |
| 2026-05-07 13:43 | 41.45501 | 28.81665 | 7899 ft | 274 kts | 353° |
| 2026-05-07 13:44 | 41.47395 | 28.81432 | 8817 ft | 276 kts | 353° |
| 2026-05-07 13:44 | 41.49297 | 28.81198 | 9704 ft | 279 kts | 353° |
| 2026-05-07 13:44 | 41.51221 | 28.80963 | 10546 ft | 284 kts | 353° |
| 2026-05-07 13:44 | 41.53244 | 28.80712 | 11038 ft | 302 kts | 354° |
| 2026-05-07 13:45 | 41.55337 | 28.80455 | 11977 ft | 303 kts | 354° |
| 2026-05-07 13:45 | 41.57443 | 28.80196 | 12935 ft | 303 kts | 354° |
| 2026-05-07 13:45 | 41.59534 | 28.79789 | 13653 ft | 308 kts | 342° |
| 2026-05-07 13:45 | 41.61396 | 28.78376 | 14435 ft | 311 kts | 319° |
| 2026-05-07 13:46 | 41.62688 | 28.76112 | 15240 ft | 315 kts | 296° |
| 2026-05-07 13:46 | 41.63389 | 28.73328 | 16011 ft | 318 kts | 290° |
| 2026-05-07 13:46 | 41.64157 | 28.70563 | 16758 ft | 320 kts | 292° |
| 2026-05-07 13:46 | 41.64961 | 28.67783 | 17516 ft | 323 kts | 293° |
| 2026-05-07 13:47 | 41.65769 | 28.65016 | 18224 ft | 325 kts | 293° |
| 2026-05-07 13:47 | 41.66594 | 28.62190 | 18941 ft | 328 kts | 292° |
| 2026-05-07 13:47 | 41.67031 | 28.59183 | 19614 ft | 335 kts | 274° |
| 2026-05-07 13:47 | 41.67045 | 28.56064 | 20304 ft | 337 kts | 275° |
| 2026-05-07 13:48 | 41.67082 | 28.52954 | 20920 ft | 340 kts | 275° |
| 2026-05-07 13:48 | 41.67120 | 28.49785 | 21562 ft | 342 kts | 275° |
| 2026-05-07 13:48 | 41.67215 | 28.46606 | 22130 ft | 342 kts | 282° |
| 2026-05-07 13:48 | 41.67952 | 28.43616 | 22691 ft | 339 kts | 298° |
| 2026-05-07 13:49 | 41.68915 | 28.40725 | 23328 ft | 341 kts | 297° |
| 2026-05-07 13:49 | 41.69868 | 28.37822 | 23935 ft | 343 kts | 297° |
| 2026-05-07 13:49 | 41.70831 | 28.34881 | 24469 ft | 347 kts | 296° |
| 2026-05-07 13:49 | 41.71791 | 28.31945 | 25020 ft | 350 kts | 296° |
| 2026-05-07 13:50 | 41.72775 | 28.28929 | 25648 ft | 351 kts | 296° |
| 2026-05-07 13:50 | 41.73749 | 28.25942 | 26190 ft | 355 kts | 296° |
| 2026-05-07 13:50 | 41.74739 | 28.22902 | 26700 ft | 358 kts | 296° |
| 2026-05-07 13:50 | 41.75724 | 28.19873 | 27240 ft | 361 kts | 296° |
| 2026-05-07 13:51 | 41.76741 | 28.16741 | 27775 ft | 364 kts | 295° |
| 2026-05-07 13:51 | 41.77741 | 28.13658 | 28273 ft | 367 kts | 295° |
| 2026-05-07 13:51 | 41.78758 | 28.10519 | 28827 ft | 369 kts | 295° |
| 2026-05-07 13:51 | 41.79966 | 28.07480 | 29252 ft | 371 kts | 307° |
| 2026-05-07 13:52 | 41.81539 | 28.04718 | 29739 ft | 374 kts | 308° |
| 2026-05-07 13:52 | 41.83112 | 28.01923 | 30297 ft | 376 kts | 308° |
| 2026-05-07 13:52 | 41.84687 | 27.99122 | 30803 ft | 379 kts | 308° |
| 2026-05-07 13:52 | 41.86271 | 27.96300 | 31307 ft | 381 kts | 308° |
| 2026-05-07 13:53 | 41.87873 | 27.93443 | 31765 ft | 384 kts | 308° |
| 2026-05-07 13:53 | 41.89478 | 27.90579 | 32246 ft | 387 kts | 307° |
| 2026-05-07 13:53 | 41.91096 | 27.87686 | 32701 ft | 389 kts | 307° |
| 2026-05-07 13:53 | 41.92723 | 27.84773 | 33169 ft | 391 kts | 308° |
| 2026-05-07 13:54 | 41.94344 | 27.81872 | 33571 ft | 394 kts | 307° |
| 2026-05-07 13:54 | 41.96000 | 27.78905 | 33965 ft | 397 kts | 307° |
| 2026-05-07 13:54 | 41.97820 | 27.76102 | 34336 ft | 400 kts | 315° |
| 2026-05-07 13:54 | 41.99780 | 27.73450 | 34692 ft | 402 kts | 314° |
| 2026-05-07 13:55 | 42.01730 | 27.70788 | 35044 ft | 404 kts | 314° |
| 2026-05-07 13:55 | 42.03712 | 27.68078 | 35346 ft | 407 kts | 314° |
| 2026-05-07 13:55 | 42.05703 | 27.65351 | 35648 ft | 410 kts | 314° |
| 2026-05-07 13:55 | 42.07710 | 27.62599 | 35920 ft | 412 kts | 314° |
| 2026-05-07 13:56 | 42.09719 | 27.59842 | 36184 ft | 415 kts | 314° |
| 2026-05-07 13:56 | 42.11750 | 27.57051 | 36476 ft | 416 kts | 314° |
| 2026-05-07 13:56 | 42.13786 | 27.54252 | 36740 ft | 418 kts | 314° |
| 2026-05-07 13:56 | 42.15828 | 27.51439 | 37002 ft | 420 kts | 314° |
| 2026-05-07 13:57 | 42.17864 | 27.48637 | 37260 ft | 423 kts | 314° |
| 2026-05-07 13:57 | 42.19939 | 27.45774 | 37502 ft | 425 kts | 314° |
| 2026-05-07 13:57 | 42.21991 | 27.42940 | 37679 ft | 427 kts | 314° |
| 2026-05-07 13:57 | 42.24072 | 27.40067 | 37859 ft | 429 kts | 314° |
| 2026-05-07 13:58 | 42.26168 | 27.37167 | 38089 ft | 430 kts | 314° |
| 2026-05-07 13:58 | 42.28243 | 27.34293 | 38250 ft | 432 kts | 313° |
| 2026-05-07 13:58 | 42.30350 | 27.31372 | 38442 ft | 433 kts | 313° |
| 2026-05-07 13:58 | 42.32464 | 27.28439 | 38618 ft | 434 kts | 313° |
| 2026-05-07 13:59 | 42.34555 | 27.25537 | 38787 ft | 434 kts | 313° |
| 2026-05-07 13:59 | 42.36648 | 27.22625 | 38960 ft | 435 kts | 313° |
| 2026-05-07 13:59 | 42.38767 | 27.19677 | 39132 ft | 435 kts | 313° |
| 2026-05-07 13:59 | 42.40861 | 27.16759 | 39297 ft | 435 kts | 313° |
| 2026-05-07 14:00 | 42.42974 | 27.13813 | 39466 ft | 435 kts | 313° |
| 2026-05-07 14:00 | 42.45085 | 27.10865 | 39634 ft | 435 kts | 313° |
| 2026-05-07 14:00 | 42.47190 | 27.07923 | 39790 ft | 434 kts | 313° |
| 2026-05-07 14:00 | 42.49268 | 27.05016 | 39943 ft | 434 kts | 313° |
| 2026-05-07 14:01 | 42.51380 | 27.02059 | 40068 ft | 434 kts | 313° |
| 2026-05-07 14:01 | 42.55593 | 26.96150 | 40064 ft | 439 kts | 313° |
| 2026-05-07 14:02 | 42.59838 | 26.90184 | 40057 ft | 443 kts | 313° |
| 2026-05-07 14:02 | 42.64109 | 26.84170 | 40054 ft | 445 kts | 313° |
| 2026-05-07 14:03 | 42.68423 | 26.78080 | 40046 ft | 447 kts | 313° |
| 2026-05-07 14:03 | 42.72712 | 26.72015 | 40045 ft | 448 kts | 313° |
| 2026-05-07 14:04 | 42.77043 | 26.65877 | 40051 ft | 449 kts | 312° |
| 2026-05-07 14:04 | 42.81373 | 26.59726 | 40054 ft | 450 kts | 313° |
| 2026-05-07 14:05 | 42.85985 | 26.54010 | 40065 ft | 451 kts | 316° |
| 2026-05-07 14:05 | 42.90654 | 26.48265 | 40067 ft | 452 kts | 316° |
| 2026-05-07 14:06 | 42.95320 | 26.42494 | 40055 ft | 452 kts | 316° |
| 2026-05-07 14:06 | 42.99958 | 26.36749 | 40047 ft | 453 kts | 316° |
| 2026-05-07 14:07 | 43.04639 | 26.30933 | 40051 ft | 454 kts | 316° |
| 2026-05-07 14:07 | 43.09319 | 26.25107 | 40051 ft | 455 kts | 316° |
| 2026-05-07 14:08 | 43.14001 | 26.19266 | 40042 ft | 456 kts | 316° |
| 2026-05-07 14:08 | 43.18519 | 26.13243 | 40013 ft | 455 kts | 308° |
| 2026-05-07 14:09 | 43.22506 | 26.06492 | 40000 ft | 456 kts | 308° |
| 2026-05-07 14:09 | 43.26518 | 25.99797 | 39996 ft | 456 kts | 308° |
| 2026-05-07 14:10 | 43.30560 | 25.93047 | 40005 ft | 456 kts | 308° |
| 2026-05-07 14:10 | 43.34565 | 25.86345 | 40005 ft | 456 kts | 308° |
| 2026-05-07 14:11 | 43.38580 | 25.79613 | 40000 ft | 456 kts | 308° |
| 2026-05-07 14:11 | 43.42579 | 25.72888 | 39990 ft | 456 kts | 308° |
| 2026-05-07 14:12 | 43.46594 | 25.66125 | 40000 ft | 456 kts | 308° |
| 2026-05-07 14:12 | 43.50591 | 25.59375 | 40004 ft | 456 kts | 308° |
| 2026-05-07 14:13 | 43.54585 | 25.52615 | 39998 ft | 457 kts | 308° |
| 2026-05-07 14:13 | 43.58604 | 25.45795 | 39999 ft | 457 kts | 307° |
| 2026-05-07 14:14 | 43.62596 | 25.39008 | 40005 ft | 457 kts | 307° |
| 2026-05-07 14:14 | 43.66594 | 25.32191 | 40001 ft | 457 kts | 307° |
| 2026-05-07 14:15 | 43.70592 | 25.25363 | 40007 ft | 458 kts | 306° |
| 2026-05-07 14:15 | 43.74586 | 25.18520 | 40005 ft | 458 kts | 307° |
| 2026-05-07 14:16 | 43.78586 | 25.11654 | 39998 ft | 458 kts | 307° |
| 2026-05-07 14:16 | 43.82555 | 25.04825 | 39982 ft | 459 kts | 306° |
| 2026-05-07 14:17 | 43.86543 | 24.97947 | 39991 ft | 459 kts | 306° |
| 2026-05-07 14:17 | 43.90535 | 24.91044 | 39991 ft | 460 kts | 306° |
| 2026-05-07 14:18 | 43.94540 | 24.84103 | 40001 ft | 460 kts | 307° |
| 2026-05-07 14:18 | 43.98526 | 24.77180 | 39997 ft | 461 kts | 306° |
| 2026-05-07 14:19 | 44.02506 | 24.70248 | 39997 ft | 461 kts | 306° |
| 2026-05-07 14:19 | 44.06493 | 24.63289 | 39995 ft | 461 kts | 306° |
| 2026-05-07 14:20 | 44.10466 | 24.56336 | 40001 ft | 461 kts | 306° |
| 2026-05-07 14:20 | 44.14471 | 24.49311 | 40000 ft | 460 kts | 306° |
| 2026-05-07 14:21 | 44.18447 | 24.42323 | 40009 ft | 460 kts | 306° |
| 2026-05-07 14:21 | 44.22412 | 24.35333 | 40015 ft | 460 kts | 306° |
| 2026-05-07 14:22 | 44.26377 | 24.28330 | 40020 ft | 461 kts | 306° |
| 2026-05-07 14:22 | 44.30339 | 24.21311 | 40018 ft | 461 kts | 306° |
| 2026-05-07 14:23 | 44.34315 | 24.14253 | 40014 ft | 461 kts | 305° |
| 2026-05-07 14:23 | 44.38266 | 24.07222 | 40018 ft | 461 kts | 306° |
| 2026-05-07 14:24 | 44.42212 | 24.00182 | 40012 ft | 461 kts | 305° |
| 2026-05-07 14:24 | 44.46178 | 23.93088 | 40024 ft | 461 kts | 305° |
| 2026-05-07 14:25 | 44.50129 | 23.86002 | 40035 ft | 461 kts | 305° |
| 2026-05-07 14:25 | 44.54062 | 23.78937 | 40023 ft | 461 kts | 305° |
| 2026-05-07 14:26 | 44.58018 | 23.71807 | 40011 ft | 462 kts | 305° |
| 2026-05-07 14:26 | 44.61938 | 23.64728 | 40017 ft | 462 kts | 305° |
| 2026-05-07 14:27 | 44.65888 | 23.57578 | 40008 ft | 462 kts | 305° |
| 2026-05-07 14:27 | 44.69801 | 23.50473 | 40007 ft | 462 kts | 305° |
| 2026-05-07 14:28 | 44.73720 | 23.43341 | 40006 ft | 462 kts | 305° |
| 2026-05-07 14:28 | 44.77652 | 23.36165 | 40014 ft | 463 kts | 305° |
| 2026-05-07 14:29 | 44.81572 | 23.28995 | 40020 ft | 463 kts | 304° |
| 2026-05-07 14:29 | 44.85511 | 23.21776 | 40025 ft | 463 kts | 304° |
| 2026-05-07 14:30 | 44.89415 | 23.14600 | 40016 ft | 463 kts | 304° |
| 2026-05-07 14:30 | 44.93328 | 23.07391 | 40013 ft | 464 kts | 304° |
| 2026-05-07 14:31 | 44.97238 | 23.00167 | 40009 ft | 463 kts | 304° |
| 2026-05-07 14:31 | 45.01159 | 22.92907 | 40027 ft | 464 kts | 304° |
| 2026-05-07 14:32 | 45.05061 | 22.85658 | 40031 ft | 464 kts | 304° |
| 2026-05-07 14:32 | 45.08957 | 22.78411 | 40042 ft | 464 kts | 304° |
| 2026-05-07 14:33 | 45.12855 | 22.71135 | 40036 ft | 465 kts | 304° |
| 2026-05-07 14:33 | 45.16775 | 22.63801 | 40046 ft | 465 kts | 304° |
| 2026-05-07 14:34 | 45.20670 | 22.56496 | 40051 ft | 465 kts | 304° |
| 2026-05-07 14:34 | 45.24559 | 22.49182 | 40052 ft | 466 kts | 304° |
| 2026-05-07 14:35 | 45.28450 | 22.41845 | 40046 ft | 466 kts | 304° |
| 2026-05-07 14:35 | 45.32350 | 22.34472 | 40030 ft | 466 kts | 303° |
| 2026-05-07 14:36 | 45.36231 | 22.27116 | 40029 ft | 466 kts | 303° |
| 2026-05-07 14:36 | 45.40102 | 22.19762 | 40033 ft | 466 kts | 303° |
| 2026-05-07 14:37 | 45.43995 | 22.12344 | 40026 ft | 466 kts | 303° |
| 2026-05-07 14:37 | 45.49788 | 22.01274 | 40008 ft | 467 kts | 303° |
| 2026-05-07 14:38 | 45.53667 | 21.93834 | 40016 ft | 467 kts | 303° |
| 2026-05-07 14:38 | 45.57545 | 21.86381 | 40012 ft | 467 kts | 303° |
| 2026-05-07 14:39 | 45.61390 | 21.78965 | 40006 ft | 467 kts | 303° |
| 2026-05-07 14:39 | 45.65268 | 21.71469 | 39998 ft | 467 kts | 303° |
| 2026-05-07 14:40 | 45.69122 | 21.64005 | 39995 ft | 467 kts | 303° |
| 2026-05-07 14:40 | 45.72955 | 21.56556 | 39994 ft | 467 kts | 302° |
| 2026-05-07 14:41 | 45.76807 | 21.49053 | 39998 ft | 467 kts | 303° |
| 2026-05-07 14:41 | 45.80642 | 21.41560 | 39998 ft | 467 kts | 303° |
| 2026-05-07 14:42 | 45.84496 | 21.34012 | 40000 ft | 468 kts | 302° |
| 2026-05-07 14:42 | 45.88337 | 21.26469 | 40004 ft | 468 kts | 302° |
| 2026-05-07 14:43 | 45.92175 | 21.18915 | 40007 ft | 468 kts | 302° |
| 2026-05-07 14:43 | 45.96027 | 21.11309 | 40006 ft | 468 kts | 302° |
| 2026-05-07 14:44 | 45.99849 | 21.03743 | 40005 ft | 468 kts | 302° |
| 2026-05-07 14:44 | 46.03668 | 20.96163 | 40004 ft | 467 kts | 302° |
| 2026-05-07 14:45 | 46.07468 | 20.88599 | 40000 ft | 467 kts | 302° |
| 2026-05-07 14:45 | 46.11287 | 20.80975 | 39985 ft | 467 kts | 302° |
| 2026-05-07 14:46 | 46.15093 | 20.73362 | 39997 ft | 467 kts | 302° |
| 2026-05-07 14:46 | 46.18954 | 20.65848 | 39989 ft | 468 kts | 303° |
| 2026-05-07 14:47 | 46.22881 | 20.58308 | 39978 ft | 468 kts | 303° |
| 2026-05-07 14:47 | 46.26771 | 20.50819 | 39978 ft | 468 kts | 303° |
| 2026-05-07 14:48 | 46.30664 | 20.43305 | 39986 ft | 468 kts | 303° |
| 2026-05-07 14:48 | 46.34580 | 20.35727 | 39974 ft | 467 kts | 302° |
| 2026-05-07 14:49 | 46.38510 | 20.28097 | 39979 ft | 467 kts | 302° |
| 2026-05-07 14:49 | 46.42370 | 20.20584 | 39982 ft | 467 kts | 302° |
| 2026-05-07 14:50 | 46.46262 | 20.12988 | 39976 ft | 468 kts | 302° |
| 2026-05-07 14:50 | 46.50126 | 20.05427 | 39982 ft | 468 kts | 302° |
| 2026-05-07 14:51 | 46.54004 | 19.97817 | 39990 ft | 468 kts | 302° |
| 2026-05-07 14:51 | 46.57868 | 19.90214 | 39996 ft | 469 kts | 302° |
| 2026-05-07 14:52 | 46.61736 | 19.82585 | 39984 ft | 468 kts | 302° |
| 2026-05-07 14:52 | 46.65591 | 19.74956 | 39987 ft | 468 kts | 302° |
| 2026-05-07 14:53 | 46.69443 | 19.67315 | 39998 ft | 468 kts | 302° |
| 2026-05-07 14:53 | 46.73313 | 19.59617 | 39983 ft | 468 kts | 302° |
| 2026-05-07 14:54 | 46.77166 | 19.51932 | 39991 ft | 468 kts | 302° |
| 2026-05-07 14:54 | 46.80989 | 19.44282 | 39989 ft | 468 kts | 302° |
| 2026-05-07 14:55 | 46.84849 | 19.36541 | 39977 ft | 469 kts | 302° |
| 2026-05-07 14:55 | 46.88683 | 19.28830 | 39985 ft | 469 kts | 301° |
| 2026-05-07 14:56 | 46.92514 | 19.21103 | 40006 ft | 470 kts | 301° |
| 2026-05-07 14:56 | 46.96348 | 19.13347 | 39986 ft | 470 kts | 301° |
| 2026-05-07 14:57 | 47.00170 | 19.05596 | 39979 ft | 471 kts | 301° |
| 2026-05-07 14:57 | 47.04007 | 18.97790 | 39967 ft | 470 kts | 301° |
| 2026-05-07 14:58 | 47.07813 | 18.90027 | 39989 ft | 470 kts | 301° |
| 2026-05-07 14:58 | 47.11644 | 18.82190 | 39981 ft | 470 kts | 301° |
| 2026-05-07 14:59 | 47.15434 | 18.74417 | 39955 ft | 470 kts | 301° |
| 2026-05-07 14:59 | 47.19234 | 18.66598 | 39946 ft | 470 kts | 301° |
| 2026-05-07 15:00 | 47.23031 | 18.58767 | 39956 ft | 471 kts | 301° |
| 2026-05-07 15:00 | 47.26817 | 18.50934 | 39962 ft | 471 kts | 301° |
| 2026-05-07 15:01 | 47.30612 | 18.43060 | 39950 ft | 471 kts | 301° |
| 2026-05-07 15:01 | 47.34404 | 18.35172 | 39957 ft | 471 kts | 301° |
| 2026-05-07 15:02 | 47.38205 | 18.27287 | 39971 ft | 472 kts | 302° |
| 2026-05-07 15:02 | 47.42158 | 18.19558 | 39950 ft | 473 kts | 302° |
| 2026-05-07 15:03 | 47.46112 | 18.11775 | 39952 ft | 473 kts | 302° |
| 2026-05-07 15:03 | 47.50055 | 18.03987 | 39936 ft | 474 kts | 302° |
| 2026-05-07 15:04 | 47.53987 | 17.96200 | 39944 ft | 474 kts | 302° |
| 2026-05-07 15:04 | 47.57940 | 17.88347 | 39979 ft | 475 kts | 302° |
| 2026-05-07 15:05 | 47.61863 | 17.80535 | 39971 ft | 475 kts | 302° |
| 2026-05-07 15:05 | 47.65803 | 17.72665 | 39974 ft | 475 kts | 302° |
| 2026-05-07 15:06 | 47.69741 | 17.64748 | 39969 ft | 476 kts | 302° |
| 2026-05-07 15:06 | 47.73663 | 17.56843 | 39965 ft | 476 kts | 302° |
| 2026-05-07 15:07 | 47.77601 | 17.48880 | 39956 ft | 477 kts | 302° |
| 2026-05-07 15:07 | 47.81522 | 17.40929 | 39948 ft | 477 kts | 302° |
| 2026-05-07 15:08 | 47.85441 | 17.32959 | 39954 ft | 477 kts | 302° |
| 2026-05-07 15:08 | 47.89355 | 17.24975 | 39942 ft | 478 kts | 302° |
| 2026-05-07 15:09 | 47.93267 | 17.16977 | 39942 ft | 479 kts | 302° |
| 2026-05-07 15:09 | 47.97183 | 17.08944 | 39945 ft | 479 kts | 301° |
| 2026-05-07 15:10 | 48.01105 | 17.00870 | 39953 ft | 479 kts | 302° |
| 2026-05-07 15:10 | 48.05019 | 16.92794 | 39958 ft | 479 kts | 302° |
| 2026-05-07 15:11 | 48.08902 | 16.84758 | 39957 ft | 479 kts | 302° |
| 2026-05-07 15:11 | 48.12822 | 16.76619 | 39947 ft | 480 kts | 302° |
| 2026-05-07 15:12 | 48.16711 | 16.68521 | 39947 ft | 480 kts | 302° |
| 2026-05-07 15:12 | 48.20595 | 16.60410 | 39948 ft | 480 kts | 302° |
| 2026-05-07 15:13 | 48.24487 | 16.52260 | 39947 ft | 475 kts | 302° |
| 2026-05-07 15:13 | 48.26382 | 16.48286 | 39941 ft | 457 kts | 301° |
| 2026-05-07 15:13 | 48.28184 | 16.44500 | 39939 ft | 440 kts | 301° |
| 2026-05-07 15:14 | 48.31744 | 16.36992 | 39959 ft | 442 kts | 301° |
| 2026-05-07 15:14 | 48.35341 | 16.29391 | 39962 ft | 450 kts | 301° |
| 2026-05-07 15:15 | 48.38974 | 16.21698 | 39955 ft | 448 kts | 301° |
| 2026-05-07 15:15 | 48.42551 | 16.14097 | 39954 ft | 446 kts | 301° |
| 2026-05-07 15:16 | 48.46151 | 16.06424 | 39954 ft | 448 kts | 301° |
| 2026-05-07 15:16 | 48.49739 | 15.98759 | 39955 ft | 448 kts | 301° |
| 2026-05-07 15:17 | 48.53327 | 15.91071 | 39956 ft | 448 kts | 301° |
| 2026-05-07 15:17 | 48.56926 | 15.83339 | 39962 ft | 449 kts | 301° |
| 2026-05-07 15:18 | 48.60518 | 15.75598 | 39961 ft | 448 kts | 301° |
| 2026-05-07 15:18 | 48.64095 | 15.67868 | 39955 ft | 449 kts | 301° |
| 2026-05-07 15:19 | 48.67660 | 15.60137 | 39956 ft | 450 kts | 301° |
| 2026-05-07 15:19 | 48.71236 | 15.52366 | 39955 ft | 451 kts | 301° |
| 2026-05-07 15:20 | 48.74826 | 15.44540 | 39959 ft | 451 kts | 301° |
| 2026-05-07 15:20 | 48.78408 | 15.36710 | 39955 ft | 450 kts | 301° |
| 2026-05-07 15:21 | 48.81984 | 15.28872 | 39963 ft | 450 kts | 300° |
| 2026-05-07 15:21 | 48.85548 | 15.21032 | 39957 ft | 452 kts | 300° |
| 2026-05-07 15:22 | 48.89122 | 15.13150 | 39966 ft | 450 kts | 300° |
| 2026-05-07 15:22 | 48.93442 | 15.06257 | 39988 ft | 461 kts | 326° |
| 2026-05-07 15:23 | 48.96423 | 15.04333 | 40001 ft | 471 kts | 342° |
| 2026-05-07 15:23 | 48.99712 | 15.03725 | 39999 ft | 480 kts | 359° |
| 2026-05-07 15:23 | 49.03009 | 15.04509 | 40001 ft | 485 kts | 15° |
| 2026-05-07 15:23 | 49.06103 | 15.06663 | 40000 ft | 488 kts | 32° |
| 2026-05-07 15:24 | 49.08693 | 15.09995 | 39988 ft | 488 kts | 49° |
| 2026-05-07 15:24 | 49.10593 | 15.14264 | 39986 ft | 485 kts | 66° |
| 2026-05-07 15:24 | 49.11655 | 15.19103 | 39968 ft | 481 kts | 82° |
| 2026-05-07 15:24 | 49.11803 | 15.24193 | 39974 ft | 475 kts | 99° |
| 2026-05-07 15:25 | 49.11033 | 15.29050 | 39971 ft | 467 kts | 116° |
| 2026-05-07 15:25 | 49.09430 | 15.33297 | 39971 ft | 458 kts | 132° |
| 2026-05-07 15:25 | 49.05209 | 15.40540 | 39942 ft | 458 kts | 135° |
| 2026-05-07 15:26 | 49.01008 | 15.47826 | 39955 ft | 455 kts | 135° |
| 2026-05-07 15:26 | 48.96803 | 15.55056 | 39953 ft | 456 kts | 135° |
| 2026-05-07 15:27 | 48.92608 | 15.62266 | 39950 ft | 456 kts | 135° |
| 2026-05-07 15:27 | 48.88374 | 15.69530 | 39956 ft | 454 kts | 136° |
| 2026-05-07 15:28 | 48.84193 | 15.76680 | 39957 ft | 455 kts | 136° |
| 2026-05-07 15:28 | 48.79953 | 15.83929 | 39952 ft | 456 kts | 136° |
| 2026-05-07 15:29 | 48.75721 | 15.91135 | 39950 ft | 457 kts | 136° |
| 2026-05-07 15:29 | 48.71479 | 15.98339 | 39947 ft | 456 kts | 136° |
| 2026-05-07 15:30 | 48.66689 | 16.04376 | 39955 ft | 442 kts | 160° |
| 2026-05-07 15:30 | 48.63751 | 16.05621 | 39971 ft | 434 kts | 177° |
| 2026-05-07 15:30 | 48.60789 | 16.05489 | 39965 ft | 429 kts | 194° |
| 2026-05-07 15:31 | 48.57963 | 16.03982 | 39963 ft | 424 kts | 210° |
| 2026-05-07 15:31 | 48.55645 | 16.01309 | 39968 ft | 423 kts | 227° |
| 2026-05-07 15:31 | 48.53971 | 15.97653 | 39978 ft | 424 kts | 244° |
| 2026-05-07 15:31 | 48.53124 | 15.93416 | 39973 ft | 429 kts | 260° |
| 2026-05-07 15:32 | 48.53173 | 15.88867 | 39976 ft | 436 kts | 277° |
| 2026-05-07 15:32 | 48.54142 | 15.84478 | 39973 ft | 445 kts | 294° |
| 2026-05-07 15:32 | 48.55962 | 15.80635 | 39977 ft | 455 kts | 310° |
| 2026-05-07 15:32 | 48.58393 | 15.77515 | 39992 ft | 460 kts | 317° |
| 2026-05-07 15:33 | 48.60586 | 15.74131 | 39941 ft | 451 kts | 302° |
| 2026-05-07 15:33 | 48.62377 | 15.70250 | 39986 ft | 450 kts | 301° |
| 2026-05-07 15:33 | 48.66000 | 15.62532 | 39959 ft | 449 kts | 302° |
| 2026-05-07 15:34 | 48.69650 | 15.54787 | 39957 ft | 449 kts | 302° |
| 2026-05-07 15:34 | 48.73287 | 15.47051 | 39959 ft | 451 kts | 301° |
| 2026-05-07 15:35 | 48.76911 | 15.39320 | 39958 ft | 450 kts | 302° |
| 2026-05-07 15:35 | 48.80559 | 15.31519 | 39964 ft | 450 kts | 301° |
| 2026-05-07 15:36 | 48.84167 | 15.23779 | 39962 ft | 451 kts | 301° |
| 2026-05-07 15:36 | 48.87791 | 15.15979 | 39961 ft | 451 kts | 301° |
| 2026-05-07 15:37 | 48.91528 | 15.08310 | 39945 ft | 456 kts | 311° |
| 2026-05-07 15:37 | 48.94076 | 15.05347 | 39975 ft | 464 kts | 328° |
| 2026-05-07 15:37 | 48.97108 | 15.03571 | 39980 ft | 473 kts | 344° |
| 2026-05-07 15:38 | 49.00382 | 15.03124 | 39976 ft | 480 kts | 1° |
| 2026-05-07 15:38 | 49.03698 | 15.04078 | 39979 ft | 485 kts | 18° |
| 2026-05-07 15:38 | 49.06739 | 15.06386 | 39976 ft | 488 kts | 34° |
| 2026-05-07 15:38 | 49.09238 | 15.09829 | 39979 ft | 488 kts | 51° |
| 2026-05-07 15:39 | 49.11062 | 15.14243 | 39975 ft | 485 kts | 68° |
| 2026-05-07 15:39 | 49.12004 | 15.19124 | 39972 ft | 481 kts | 84° |
| 2026-05-07 15:39 | 49.12036 | 15.24185 | 39976 ft | 474 kts | 101° |
| 2026-05-07 15:39 | 49.11166 | 15.28966 | 39973 ft | 465 kts | 118° |
| 2026-05-07 15:40 | 49.09472 | 15.33119 | 39979 ft | 457 kts | 134° |
| 2026-05-07 15:40 | 49.07372 | 15.36703 | 39983 ft | 457 kts | 135° |
| 2026-05-07 15:40 | 49.03125 | 15.44027 | 39962 ft | 457 kts | 135° |
| 2026-05-07 15:41 | 48.98920 | 15.51320 | 39961 ft | 456 kts | 135° |
| 2026-05-07 15:41 | 48.94735 | 15.58569 | 39962 ft | 456 kts | 135° |
| 2026-05-07 15:42 | 48.90554 | 15.65812 | 39961 ft | 457 kts | 135° |
| 2026-05-07 15:42 | 48.86337 | 15.73071 | 39965 ft | 456 kts | 136° |
| 2026-05-07 15:43 | 48.82117 | 15.80285 | 39964 ft | 456 kts | 136° |
| 2026-05-07 15:43 | 48.77897 | 15.87488 | 39965 ft | 457 kts | 136° |
| 2026-05-07 15:44 | 48.73655 | 15.94721 | 39964 ft | 457 kts | 136° |
| 2026-05-07 15:44 | 48.69340 | 16.01720 | 39944 ft | 451 kts | 146° |
| 2026-05-07 15:45 | 48.66676 | 16.04110 | 39975 ft | 441 kts | 162° |
| 2026-05-07 15:45 | 48.63724 | 16.05179 | 39987 ft | 434 kts | 179° |
| 2026-05-07 15:45 | 48.60759 | 16.04873 | 39981 ft | 429 kts | 195° |
| 2026-05-07 15:45 | 48.57998 | 16.03220 | 39976 ft | 425 kts | 212° |
| 2026-05-07 15:46 | 48.54150 | 15.96643 | 39984 ft | 425 kts | 246° |
| 2026-05-07 15:46 | 48.53409 | 15.92342 | 39981 ft | 430 kts | 263° |
| 2026-05-07 15:46 | 48.53571 | 15.87812 | 39982 ft | 437 kts | 279° |
| 2026-05-07 15:47 | 48.54634 | 15.83506 | 39981 ft | 446 kts | 296° |
| 2026-05-07 15:47 | 48.56524 | 15.79770 | 39977 ft | 455 kts | 312° |
| 2026-05-07 15:47 | 48.58978 | 15.76630 | 39989 ft | 457 kts | 314° |
| 2026-05-07 15:47 | 48.61055 | 15.73085 | 39953 ft | 450 kts | 301° |
| 2026-05-07 15:48 | 48.62864 | 15.69188 | 39975 ft | 450 kts | 302° |
| 2026-05-07 15:48 | 48.66530 | 15.61726 | 39950 ft | 429 kts | 302° |
| 2026-05-07 15:48 | 48.68292 | 15.58158 | 39940 ft | 416 kts | 302° |
| 2026-05-07 15:49 | 48.69991 | 15.54707 | 39949 ft | 413 kts | 302° |
| 2026-05-07 15:49 | 48.73483 | 15.47606 | 39977 ft | 425 kts | 303° |
| 2026-05-07 15:50 | 48.77015 | 15.40415 | 39963 ft | 427 kts | 303° |
| 2026-05-07 15:50 | 48.80544 | 15.33213 | 39965 ft | 422 kts | 302° |
| 2026-05-07 15:51 | 48.84044 | 15.26045 | 39973 ft | 424 kts | 302° |
| 2026-05-07 15:51 | 48.87548 | 15.18854 | 39970 ft | 424 kts | 302° |
| 2026-05-07 15:52 | 48.91048 | 15.11650 | 39973 ft | 423 kts | 302° |
| 2026-05-07 15:52 | 48.94569 | 15.04381 | 39988 ft | 431 kts | 302° |
| 2026-05-07 15:53 | 48.98166 | 14.96939 | 39982 ft | 444 kts | 302° |
| 2026-05-07 15:53 | 49.01887 | 14.89215 | 39980 ft | 456 kts | 302° |
| 2026-05-07 15:54 | 49.05688 | 14.81302 | 39977 ft | 465 kts | 303° |
| 2026-05-07 15:54 | 49.09541 | 14.73259 | 39979 ft | 472 kts | 303° |
| 2026-05-07 15:55 | 49.13436 | 14.65106 | 39971 ft | 477 kts | 303° |
| 2026-05-07 15:55 | 49.17367 | 14.56849 | 39972 ft | 480 kts | 303° |
| 2026-05-07 15:56 | 49.21299 | 14.48566 | 39968 ft | 482 kts | 303° |
| 2026-05-07 15:56 | 49.25229 | 14.40259 | 39973 ft | 484 kts | 303° |
| 2026-05-07 15:57 | 49.29185 | 14.31872 | 39969 ft | 485 kts | 302° |
| 2026-05-07 15:57 | 49.33136 | 14.23472 | 39964 ft | 485 kts | 302° |
| 2026-05-07 15:58 | 49.37069 | 14.15081 | 39962 ft | 486 kts | 303° |
| 2026-05-07 15:58 | 49.41005 | 14.06659 | 39969 ft | 485 kts | 303° |
| 2026-05-07 15:59 | 49.44926 | 13.98240 | 39973 ft | 486 kts | 303° |
| 2026-05-07 15:59 | 49.48878 | 13.89729 | 39977 ft | 486 kts | 303° |
| 2026-05-07 16:00 | 49.52795 | 13.81265 | 39978 ft | 486 kts | 303° |
| 2026-05-07 16:00 | 49.56722 | 13.72753 | 39971 ft | 486 kts | 303° |
| 2026-05-07 16:01 | 49.60635 | 13.64246 | 39971 ft | 486 kts | 303° |
| 2026-05-07 16:01 | 49.64529 | 13.55752 | 39975 ft | 486 kts | 303° |
| 2026-05-07 16:02 | 49.68452 | 13.47167 | 39977 ft | 486 kts | 303° |
| 2026-05-07 16:02 | 49.72329 | 13.38656 | 39977 ft | 486 kts | 303° |
| 2026-05-07 16:03 | 49.76241 | 13.30037 | 39985 ft | 486 kts | 302° |
| 2026-05-07 16:03 | 49.80124 | 13.21458 | 39980 ft | 487 kts | 302° |
| 2026-05-07 16:04 | 49.84014 | 13.12836 | 39986 ft | 487 kts | 302° |
| 2026-05-07 16:04 | 49.87891 | 13.04213 | 39975 ft | 487 kts | 302° |
| 2026-05-07 16:05 | 49.91736 | 12.95634 | 39972 ft | 487 kts | 302° |
| 2026-05-07 16:05 | 49.95614 | 12.86954 | 39973 ft | 487 kts | 302° |
| 2026-05-07 16:06 | 49.99473 | 12.78285 | 39973 ft | 487 kts | 303° |
| 2026-05-07 16:06 | 50.03319 | 12.69618 | 39972 ft | 487 kts | 303° |
| 2026-05-07 16:07 | 50.07171 | 12.60911 | 39982 ft | 487 kts | 303° |
| 2026-05-07 16:07 | 50.11008 | 12.52209 | 39978 ft | 487 kts | 303° |
| 2026-05-07 16:08 | 50.14792 | 12.43459 | 39976 ft | 487 kts | 302° |
| 2026-05-07 16:08 | 50.18506 | 12.34618 | 39982 ft | 486 kts | 301° |
| 2026-05-07 16:09 | 50.22211 | 12.25755 | 39981 ft | 486 kts | 301° |
| 2026-05-07 16:09 | 50.25897 | 12.16906 | 39985 ft | 486 kts | 301° |
| 2026-05-07 16:10 | 50.29591 | 12.08012 | 39995 ft | 486 kts | 301° |
| 2026-05-07 16:10 | 50.33277 | 11.99104 | 40001 ft | 486 kts | 301° |
| 2026-05-07 16:11 | 50.36927 | 11.90255 | 40003 ft | 486 kts | 301° |
| 2026-05-07 16:11 | 50.40609 | 11.81297 | 40007 ft | 487 kts | 301° |
| 2026-05-07 16:12 | 50.44284 | 11.72325 | 40008 ft | 486 kts | 301° |
| 2026-05-07 16:12 | 50.47939 | 11.63371 | 39998 ft | 486 kts | 301° |
| 2026-05-07 16:13 | 50.51565 | 11.54458 | 39996 ft | 486 kts | 301° |
| 2026-05-07 16:13 | 50.55206 | 11.45477 | 40002 ft | 486 kts | 301° |
| 2026-05-07 16:14 | 50.58860 | 11.36434 | 40005 ft | 486 kts | 301° |
| 2026-05-07 16:14 | 50.62470 | 11.27467 | 40009 ft | 486 kts | 300° |
| 2026-05-07 16:15 | 50.66097 | 11.18430 | 40013 ft | 486 kts | 300° |
| 2026-05-07 16:15 | 50.69701 | 11.09417 | 40019 ft | 486 kts | 300° |
| 2026-05-07 16:16 | 50.73304 | 11.00376 | 40030 ft | 485 kts | 300° |
| 2026-05-07 16:16 | 50.76903 | 10.91311 | 40026 ft | 486 kts | 300° |
| 2026-05-07 16:17 | 50.80473 | 10.82289 | 40021 ft | 486 kts | 300° |
| 2026-05-07 16:17 | 50.84061 | 10.73188 | 40020 ft | 486 kts | 300° |
| 2026-05-07 16:18 | 50.87637 | 10.64089 | 40025 ft | 486 kts | 300° |
| 2026-05-07 16:18 | 50.91198 | 10.54995 | 40030 ft | 486 kts | 301° |
| 2026-05-07 16:19 | 50.94780 | 10.45816 | 40031 ft | 486 kts | 301° |
| 2026-05-07 16:19 | 50.98306 | 10.36746 | 40028 ft | 486 kts | 300° |
| 2026-05-07 16:20 | 51.01876 | 10.27531 | 40034 ft | 486 kts | 300° |
| 2026-05-07 16:20 | 51.05411 | 10.18375 | 40031 ft | 486 kts | 300° |
| 2026-05-07 16:21 | 51.08964 | 10.09139 | 40031 ft | 487 kts | 300° |
| 2026-05-07 16:21 | 51.12496 | 9.99926 | 40027 ft | 486 kts | 300° |
| 2026-05-07 16:22 | 51.16031 | 9.90672 | 40027 ft | 486 kts | 300° |
| 2026-05-07 16:22 | 51.19543 | 9.81442 | 40030 ft | 486 kts | 300° |
| 2026-05-07 16:23 | 51.23064 | 9.72155 | 40032 ft | 486 kts | 300° |
| 2026-05-07 16:23 | 51.26567 | 9.62886 | 40042 ft | 486 kts | 300° |
| 2026-05-07 16:24 | 51.30059 | 9.53610 | 40047 ft | 486 kts | 300° |
| 2026-05-07 16:24 | 51.33304 | 9.44962 | 40052 ft | 486 kts | 300° |
| 2026-05-07 16:25 | 51.36789 | 9.35639 | 40054 ft | 486 kts | 300° |
| 2026-05-07 16:25 | 51.40261 | 9.26316 | 40058 ft | 487 kts | 299° |
| 2026-05-07 16:26 | 51.43740 | 9.16944 | 40059 ft | 487 kts | 299° |
| 2026-05-07 16:26 | 51.47208 | 9.07564 | 40058 ft | 487 kts | 299° |
| 2026-05-07 16:27 | 51.50694 | 8.98100 | 40055 ft | 487 kts | 299° |
| 2026-05-07 16:27 | 51.54143 | 8.88701 | 40057 ft | 487 kts | 299° |
| 2026-05-07 16:28 | 51.57576 | 8.79316 | 40059 ft | 487 kts | 299° |
| 2026-05-07 16:28 | 51.61046 | 8.69791 | 40059 ft | 487 kts | 299° |
| 2026-05-07 16:29 | 51.64465 | 8.60373 | 40057 ft | 487 kts | 299° |
| 2026-05-07 16:29 | 51.67903 | 8.50863 | 40058 ft | 488 kts | 299° |
| 2026-05-07 16:30 | 51.71312 | 8.41401 | 40065 ft | 487 kts | 299° |
| 2026-05-07 16:30 | 51.74708 | 8.31940 | 40067 ft | 488 kts | 298° |
| 2026-05-07 16:31 | 51.78124 | 8.22386 | 40062 ft | 488 kts | 298° |
| 2026-05-07 16:31 | 51.81500 | 8.12909 | 40064 ft | 488 kts | 298° |
| 2026-05-07 16:32 | 51.84898 | 8.03335 | 40066 ft | 488 kts | 298° |
| 2026-05-07 16:32 | 51.88290 | 7.93741 | 40067 ft | 488 kts | 298° |
| 2026-05-07 16:33 | 51.91654 | 7.84189 | 40063 ft | 488 kts | 298° |
| 2026-05-07 16:33 | 51.95024 | 7.74585 | 40065 ft | 488 kts | 298° |
| 2026-05-07 16:34 | 51.98397 | 7.64933 | 40068 ft | 488 kts | 298° |
| 2026-05-07 16:34 | 52.01753 | 7.55295 | 40066 ft | 488 kts | 298° |
| 2026-05-07 16:35 | 52.05099 | 7.45647 | 40056 ft | 488 kts | 298° |
| 2026-05-07 16:35 | 52.08445 | 7.35964 | 40062 ft | 488 kts | 298° |
| 2026-05-07 16:36 | 52.11784 | 7.26262 | 40057 ft | 488 kts | 297° |
| 2026-05-07 16:36 | 52.15116 | 7.16542 | 40049 ft | 488 kts | 297° |
| 2026-05-07 16:36 | 52.16806 | 7.11596 | 39499 ft | 500 kts | 297° |
| 2026-05-07 16:37 | 52.18508 | 7.06611 | 39186 ft | 499 kts | 297° |
| 2026-05-07 16:37 | 52.20199 | 7.01649 | 38663 ft | 495 kts | 297° |
| 2026-05-07 16:37 | 52.21869 | 6.96742 | 37836 ft | 491 kts | 298° |
| 2026-05-07 16:37 | 52.23626 | 6.92010 | 36792 ft | 491 kts | 302° |
| 2026-05-07 16:38 | 52.25570 | 6.87514 | 35633 ft | 493 kts | 307° |
| 2026-05-07 16:38 | 52.27718 | 6.83185 | 34133 ft | 486 kts | 311° |
| 2026-05-07 16:38 | 52.30078 | 6.79407 | 32106 ft | 477 kts | 319° |
| 2026-05-07 16:38 | 52.32502 | 6.75875 | 30396 ft | 462 kts | 313° |
| 2026-05-07 16:39 | 52.34404 | 6.71826 | 28694 ft | 449 kts | 300° |
| 2026-05-07 16:39 | 52.36143 | 6.67630 | 27355 ft | 431 kts | 309° |
| 2026-05-07 16:39 | 52.38120 | 6.64084 | 26100 ft | 416 kts | 311° |
| 2026-05-07 16:39 | 52.39995 | 6.60576 | 24761 ft | 404 kts | 309° |
| 2026-05-07 16:40 | 52.41739 | 6.57007 | 23072 ft | 401 kts | 308° |
| 2026-05-07 16:40 | 52.43487 | 6.53631 | 21468 ft | 398 kts | 312° |
| 2026-05-07 16:40 | 52.45284 | 6.50292 | 20397 ft | 376 kts | 305° |
| 2026-05-07 16:40 | 52.46489 | 6.46707 | 20010 ft | 345 kts | 287° |
| 2026-05-07 16:41 | 52.46932 | 6.42985 | 19557 ft | 323 kts | 277° |
| 2026-05-07 16:41 | 52.47174 | 6.39414 | 19121 ft | 305 kts | 276° |
| 2026-05-07 16:41 | 52.47374 | 6.36046 | 18728 ft | 290 kts | 275° |
| 2026-05-07 16:41 | 52.47550 | 6.32810 | 18345 ft | 276 kts | 274° |
| 2026-05-07 16:42 | 52.47711 | 6.29728 | 17991 ft | 265 kts | 274° |
| 2026-05-07 16:42 | 52.47861 | 6.26775 | 17652 ft | 257 kts | 274° |
| 2026-05-07 16:42 | 52.48006 | 6.23877 | 17329 ft | 256 kts | 274° |
| 2026-05-07 16:42 | 52.48150 | 6.20971 | 16997 ft | 255 kts | 274° |
| 2026-05-07 16:43 | 52.48292 | 6.18075 | 16661 ft | 254 kts | 274° |
| 2026-05-07 16:43 | 52.48432 | 6.15211 | 16330 ft | 253 kts | 274° |
| 2026-05-07 16:43 | 52.48572 | 6.12324 | 15994 ft | 252 kts | 274° |
| 2026-05-07 16:43 | 52.48709 | 6.09481 | 15651 ft | 251 kts | 274° |
| 2026-05-07 16:44 | 52.48848 | 6.06591 | 15301 ft | 249 kts | 274° |
| 2026-05-07 16:44 | 52.48982 | 6.03774 | 14964 ft | 248 kts | 274° |
| 2026-05-07 16:44 | 52.49115 | 6.00961 | 14616 ft | 247 kts | 274° |
| 2026-05-07 16:44 | 52.49248 | 5.98153 | 14266 ft | 246 kts | 274° |
| 2026-05-07 16:45 | 52.49381 | 5.95338 | 13900 ft | 245 kts | 274° |
| 2026-05-07 16:45 | 52.49511 | 5.92563 | 13544 ft | 243 kts | 274° |
| 2026-05-07 16:45 | 52.49638 | 5.89805 | 13190 ft | 243 kts | 274° |
| 2026-05-07 16:45 | 52.49765 | 5.87078 | 12839 ft | 241 kts | 274° |
| 2026-05-07 16:46 | 52.49890 | 5.84357 | 12491 ft | 239 kts | 274° |
| 2026-05-07 16:46 | 52.50015 | 5.81635 | 12141 ft | 238 kts | 274° |
| 2026-05-07 16:46 | 52.50142 | 5.78887 | 11801 ft | 237 kts | 274° |
| 2026-05-07 16:46 | 52.50265 | 5.76179 | 11481 ft | 236 kts | 274° |
| 2026-05-07 16:47 | 52.50385 | 5.73518 | 11167 ft | 234 kts | 274° |
| 2026-05-07 16:47 | 52.50505 | 5.70860 | 10872 ft | 233 kts | 274° |
| 2026-05-07 16:47 | 52.50623 | 5.68211 | 10555 ft | 232 kts | 274° |
| 2026-05-07 16:47 | 52.50741 | 5.65554 | 10308 ft | 231 kts | 274° |
| 2026-05-07 16:48 | 52.50857 | 5.62931 | 10160 ft | 228 kts | 274° |
| 2026-05-07 16:48 | 52.50972 | 5.60328 | 10117 ft | 230 kts | 274° |
| 2026-05-07 16:48 | 52.51046 | 5.57705 | 10051 ft | 230 kts | 264° |
| 2026-05-07 16:48 | 52.50484 | 5.55246 | 10020 ft | 230 kts | 233° |
| 2026-05-07 16:49 | 52.49426 | 5.53251 | 10047 ft | 231 kts | 230° |
| 2026-05-07 16:49 | 52.48380 | 5.51263 | 10044 ft | 231 kts | 230° |
| 2026-05-07 16:49 | 52.47331 | 5.49239 | 10042 ft | 231 kts | 231° |
| 2026-05-07 16:49 | 52.46310 | 5.47231 | 10040 ft | 230 kts | 231° |
| 2026-05-07 16:50 | 52.45286 | 5.45192 | 10039 ft | 230 kts | 231° |
| 2026-05-07 16:50 | 52.44274 | 5.43172 | 10031 ft | 230 kts | 231° |
| 2026-05-07 16:50 | 52.43249 | 5.41124 | 9965 ft | 232 kts | 231° |
| 2026-05-07 16:50 | 52.42236 | 5.39099 | 9657 ft | 230 kts | 231° |
| 2026-05-07 16:51 | 52.41211 | 5.37053 | 9401 ft | 229 kts | 231° |
| 2026-05-07 16:51 | 52.40204 | 5.35043 | 9160 ft | 229 kts | 231° |
| 2026-05-07 16:51 | 52.39187 | 5.33014 | 8924 ft | 229 kts | 230° |
| 2026-05-07 16:51 | 52.38170 | 5.30988 | 8691 ft | 228 kts | 230° |
| 2026-05-07 16:52 | 52.37174 | 5.29004 | 8491 ft | 228 kts | 230° |
| 2026-05-07 16:52 | 52.36167 | 5.27004 | 8256 ft | 226 kts | 230° |
| 2026-05-07 16:52 | 52.35170 | 5.25023 | 8020 ft | 226 kts | 230° |
| 2026-05-07 16:52 | 52.34165 | 5.23028 | 7792 ft | 226 kts | 230° |
| 2026-05-07 16:53 | 52.33161 | 5.21035 | 7583 ft | 225 kts | 230° |
| 2026-05-07 16:53 | 52.32175 | 5.19081 | 7362 ft | 224 kts | 230° |
| 2026-05-07 16:53 | 52.31166 | 5.17081 | 7136 ft | 224 kts | 230° |
| 2026-05-07 16:53 | 52.30168 | 5.15105 | 6902 ft | 224 kts | 229° |
| 2026-05-07 16:54 | 52.29176 | 5.13143 | 6687 ft | 223 kts | 229° |
| 2026-05-07 16:54 | 52.28183 | 5.11181 | 6459 ft | 223 kts | 229° |
| 2026-05-07 16:54 | 52.27210 | 5.09261 | 6291 ft | 222 kts | 229° |
| 2026-05-07 16:54 | 52.26224 | 5.07316 | 6253 ft | 222 kts | 229° |
| 2026-05-07 16:55 | 52.25267 | 5.05427 | 6184 ft | 222 kts | 229° |
| 2026-05-07 16:55 | 52.24195 | 5.03617 | 6090 ft | 222 kts | 213° |
| 2026-05-07 16:55 | 52.22858 | 5.02361 | 5845 ft | 220 kts | 207° |
| 2026-05-07 16:55 | 52.21528 | 5.01114 | 5604 ft | 219 kts | 209° |
| 2026-05-07 16:56 | 52.20210 | 4.99845 | 5364 ft | 219 kts | 210° |
| 2026-05-07 16:56 | 52.18906 | 4.98556 | 5153 ft | 217 kts | 214° |
| 2026-05-07 16:56 | 52.17880 | 4.94210 | 5695 ft | 222 kts | 285° |
| 2026-05-07 16:57 | 52.18618 | 4.91998 | 5717 ft | 223 kts | 316° |
| 2026-05-07 16:57 | 52.19957 | 4.90774 | 5690 ft | 220 kts | 352° |
| 2026-05-07 16:57 | 52.21474 | 4.90574 | 5505 ft | 218 kts | 352° |
| 2026-05-07 16:57 | 52.22863 | 4.89556 | 5351 ft | 220 kts | 317° |
| 2026-05-07 16:58 | 52.23682 | 4.87467 | 5330 ft | 221 kts | 292° |
| 2026-05-07 16:58 | 52.24151 | 4.85081 | 5225 ft | 221 kts | 279° |
| 2026-05-07 16:58 | 52.24222 | 4.82577 | 5164 ft | 220 kts | 267° |
| 2026-05-07 16:58 | 52.24086 | 4.80112 | 5123 ft | 220 kts | 263° |
| 2026-05-07 16:59 | 52.23848 | 4.77612 | 5006 ft | 223 kts | 253° |
| 2026-05-07 16:59 | 52.23024 | 4.75534 | 4851 ft | 219 kts | 218° |
| 2026-05-07 16:59 | 52.21758 | 4.74163 | 4721 ft | 218 kts | 217° |
| 2026-05-07 16:59 | 52.20887 | 4.72206 | 4622 ft | 218 kts | 253° |
| 2026-05-07 17:00 | 52.20853 | 4.69759 | 4571 ft | 218 kts | 288° |
| 2026-05-07 17:00 | 52.21359 | 4.67431 | 4540 ft | 218 kts | 283° |
| 2026-05-07 17:00 | 52.21450 | 4.64957 | 4515 ft | 218 kts | 269° |
| 2026-05-07 17:00 | 52.21398 | 4.62499 | 4479 ft | 218 kts | 268° |
| 2026-05-07 17:01 | 52.21333 | 4.60024 | 4449 ft | 217 kts | 268° |
| 2026-05-07 17:01 | 52.21262 | 4.57599 | 4421 ft | 208 kts | 268° |
| 2026-05-07 17:01 | 52.21192 | 4.55312 | 4368 ft | 195 kts | 268° |
| 2026-05-07 17:01 | 52.21126 | 4.53168 | 4232 ft | 188 kts | 268° |
| 2026-05-07 17:02 | 52.21059 | 4.51077 | 4094 ft | 179 kts | 268° |
| 2026-05-07 17:02 | 52.20715 | 4.49200 | 3978 ft | 167 kts | 233° |
| 2026-05-07 17:02 | 52.19763 | 4.48181 | 3746 ft | 165 kts | 192° |
| 2026-05-07 17:02 | 52.18724 | 4.47637 | 3558 ft | 155 kts | 211° |
| 2026-05-07 17:03 | 52.18112 | 4.46253 | 3462 ft | 151 kts | 257° |
| 2026-05-07 17:03 | 52.18125 | 4.44563 | 3490 ft | 151 kts | 277° |
| 2026-05-07 17:03 | 52.18059 | 4.42858 | 3485 ft | 151 kts | 261° |
| 2026-05-07 17:03 | 52.17814 | 4.41190 | 3480 ft | 151 kts | 255° |
| 2026-05-07 17:04 | 52.17500 | 4.39576 | 3476 ft | 150 kts | 252° |
| 2026-05-07 17:04 | 52.17298 | 4.37888 | 3313 ft | 151 kts | 279° |
| 2026-05-07 17:04 | 52.17768 | 4.36450 | 3261 ft | 146 kts | 323° |
| 2026-05-07 17:04 | 52.18687 | 4.35951 | 3214 ft | 141 kts | 7° |
| 2026-05-07 17:05 | 52.19528 | 4.36647 | 3188 ft | 137 kts | 52° |
| 2026-05-07 17:05 | 52.19839 | 4.38090 | 3193 ft | 137 kts | 84° |
| 2026-05-07 17:05 | 52.19940 | 4.39634 | 3181 ft | 137 kts | 83° |
| 2026-05-07 17:05 | 52.20049 | 4.41190 | 3166 ft | 136 kts | 83° |
| 2026-05-07 17:06 | 52.20152 | 4.42724 | 3161 ft | 137 kts | 83° |
| 2026-05-07 17:06 | 52.20254 | 4.44268 | 3152 ft | 136 kts | 83° |
| 2026-05-07 17:06 | 52.20386 | 4.45774 | 3101 ft | 133 kts | 64° |
| 2026-05-07 17:06 | 52.20872 | 4.47068 | 3181 ft | 139 kts | 68° |
| 2026-05-07 17:07 | 52.21231 | 4.48548 | 3184 ft | 141 kts | 63° |
| 2026-05-07 17:07 | 52.21789 | 4.49858 | 3093 ft | 139 kts | 51° |
| 2026-05-07 17:07 | 52.22120 | 4.51289 | 2923 ft | 137 kts | 91° |
| 2026-05-07 17:07 | 52.21859 | 4.52783 | 2763 ft | 138 kts | 105° |
| 2026-05-07 17:08 | 52.21913 | 4.54323 | 2325 ft | 142 kts | 66° |
| 2026-05-07 17:08 | 52.22374 | 4.55730 | 1801 ft | 142 kts | 63° |
| 2026-05-07 17:08 | 52.22792 | 4.57171 | 1265 ft | 143 kts | 64° |
| 2026-05-07 17:08 | 52.23181 | 4.58600 | 870 ft | 136 kts | 66° |
| 2026-05-07 17:09 | 52.23550 | 4.60020 | 653 ft | 148 kts | 76° |
| 2026-05-07 17:09 | 52.24068 | 4.61510 | 877 ft | 148 kts | 50° |
| 2026-05-07 17:09 | 52.24662 | 4.62671 | 808 ft | 123 kts | 58° |
| 2026-05-07 17:09 | 52.25149 | 4.63897 | 805 ft | 126 kts | 58° |
| 2026-05-07 17:10 | 52.25600 | 4.65092 | 737 ft | 126 kts | 58° |
| 2026-05-07 17:10 | 52.26046 | 4.66256 | 707 ft | 113 kts | 58° |
| 2026-05-07 17:10 | 52.26463 | 4.67366 | 603 ft | 118 kts | 59° |
| 2026-05-07 17:10 | 52.26889 | 4.68510 | 563 ft | 116 kts | 57° |
| 2026-05-07 17:11 | 52.27329 | 4.69599 | 476 ft | 130 kts | 56° |
| 2026-05-07 17:11 | 52.27898 | 4.71124 | 710 ft | 183 kts | 58° |
| 2026-05-07 17:11 | 52.28684 | 4.73162 | 1015 ft | 238 kts | 57° |
| 2026-05-07 17:11 | 52.29653 | 4.75619 | 1439 ft | 277 kts | 57° |
| 2026-05-07 17:12 | 52.30755 | 4.78388 | 1924 ft | 302 kts | 57° |
| 2026-05-07 17:12 | 52.31882 | 4.81412 | 2539 ft | 313 kts | 59° |
| 2026-05-07 17:12 | 52.33021 | 4.84420 | 3229 ft | 311 kts | 58° |
| 2026-05-07 17:12 | 52.34090 | 4.87226 | 2795 ft | 271 kts | 58° |
| 2026-05-07 17:13 | 52.35034 | 4.89698 | 2812 ft | 252 kts | 58° |
| 2026-05-07 17:13 | 52.35973 | 4.92156 | 3022 ft | 255 kts | 58° |
| 2026-05-07 17:13 | 52.36916 | 4.94629 | 2956 ft | 253 kts | 58° |
| 2026-05-07 17:13 | 52.37837 | 4.97048 | 2990 ft | 253 kts | 58° |
| 2026-05-07 17:14 | 52.38769 | 4.99488 | 2983 ft | 252 kts | 57° |
| 2026-05-07 17:14 | 52.39538 | 5.02073 | 2983 ft | 252 kts | 70° |
| 2026-05-07 17:14 | 52.40100 | 5.04784 | 2983 ft | 252 kts | 70° |
| 2026-05-07 17:14 | 52.40824 | 5.07401 | 2957 ft | 254 kts | 54° |
| 2026-05-07 17:15 | 52.42344 | 5.09492 | 2948 ft | 333 kts | 29° |
| 2026-05-07 17:15 | 52.44526 | 5.10831 | 4801 ft | 352 kts | 20° |
| 2026-05-07 17:15 | 52.46807 | 5.11939 | 7239 ft | 346 kts | 15° |
| 2026-05-07 17:15 | 52.49210 | 5.12795 | 8411 ft | 363 kts | 9° |
| 2026-05-07 17:16 | 52.51492 | 5.13204 | 9044 ft | 304 kts | 1° |
| 2026-05-07 17:16 | 52.53498 | 5.12906 | 9070 ft | 282 kts | 343° |
| 2026-05-07 17:16 | 52.55187 | 5.11408 | 8384 ft | 276 kts | 315° |
| 2026-05-07 17:16 | 52.56136 | 5.08925 | 8345 ft | 247 kts | 284° |
| 2026-05-07 17:17 | 52.56179 | 5.06265 | 8326 ft | 222 kts | 252° |
| 2026-05-07 17:17 | 52.55413 | 5.04253 | 8285 ft | 202 kts | 220° |
| 2026-05-07 17:17 | 52.54385 | 5.02804 | 8253 ft | 187 kts | 220° |
| 2026-05-07 17:17 | 52.53440 | 5.01445 | 8189 ft | 175 kts | 219° |
| 2026-05-07 17:18 | 52.52540 | 4.99986 | 7783 ft | 191 kts | 230° |
| 2026-05-07 17:18 | 52.51756 | 4.98163 | 7322 ft | 201 kts | 237° |
| 2026-05-07 17:18 | 52.51098 | 4.96136 | 6906 ft | 206 kts | 244° |
| 2026-05-07 17:18 | 52.50521 | 4.93904 | 6305 ft | 220 kts | 248° |
| 2026-05-07 17:19 | 52.49958 | 4.91513 | 5772 ft | 230 kts | 248° |
| 2026-05-07 17:19 | 52.49389 | 4.89019 | 5257 ft | 236 kts | 249° |
| 2026-05-07 17:19 | 52.48839 | 4.86485 | 4748 ft | 242 kts | 250° |
| 2026-05-07 17:19 | 52.48260 | 4.83856 | 4284 ft | 244 kts | 248° |
| 2026-05-07 17:20 | 52.47575 | 4.81318 | 3861 ft | 244 kts | 244° |
| 2026-05-07 17:20 | 52.46773 | 4.78848 | 3438 ft | 245 kts | 240° |
| 2026-05-07 17:20 | 52.45872 | 4.76490 | 3019 ft | 245 kts | 236° |
| 2026-05-07 17:20 | 52.44868 | 4.74254 | 2596 ft | 245 kts | 231° |